sensor_id;sensor_type;location;lat;lon;timestamp;temperature;humidity
27314;DHT22;14800;48.174;9.798;2024-01-10T00:00:14;-4.10;80.50
27314;DHT22;14800;48.174;9.798;2024-01-10T00:02:40;-4.10;80.50
27314;DHT22;14800;48.174;9.798;2024-01-10T00:05:06;-4.10;80.40
27314;DHT22;14800;48.174;9.798;2024-01-10T00:07:31;-4.00;80.40
27314;DHT22;14800;48.174;9.798;2024-01-10T00:09:57;-4.00;80.40
27314;DHT22;14800;48.174;9.798;2024-01-10T00:12:25;-4.00;80.50
27314;DHT22;14800;48.174;9.798;2024-01-10T00:14:51;-4.00;80.60
27314;DHT22;14800;48.174;9.798;2024-01-10T00:17:16;-4.00;80.60
27314;DHT22;14800;48.174;9.798;2024-01-10T00:19:42;-3.90;80.60
27314;DHT22;14800;48.174;9.798;2024-01-10T00:22:07;-3.90;80.60
27314;DHT22;14800;48.174;9.798;2024-01-10T00:24:33;-3.90;80.50
27314;DHT22;14800;48.174;9.798;2024-01-10T00:26:58;-3.90;80.40
27314;DHT22;14800;48.174;9.798;2024-01-10T00:29:24;-3.90;80.40
27314;DHT22;14800;48.174;9.798;2024-01-10T00:31:49;-3.80;80.40
27314;DHT22;14800;48.174;9.798;2024-01-10T00:34:16;-3.90;80.40
27314;DHT22;14800;48.174;9.798;2024-01-10T00:36:42;-3.80;80.40
27314;DHT22;14800;48.174;9.798;2024-01-10T00:39:07;-3.80;80.40
27314;DHT22;14800;48.174;9.798;2024-01-10T00:41:33;-3.80;80.40
27314;DHT22;14800;48.174;9.798;2024-01-10T00:43:58;-3.70;80.40
27314;DHT22;14800;48.174;9.798;2024-01-10T00:46:24;-3.70;80.30
27314;DHT22;14800;48.174;9.798;2024-01-10T00:48:50;-3.70;80.30
27314;DHT22;14800;48.174;9.798;2024-01-10T00:51:15;-3.70;80.30
27314;DHT22;14800;48.174;9.798;2024-01-10T00:53:41;-3.70;80.20
27314;DHT22;14800;48.174;9.798;2024-01-10T00:56:07;-3.80;80.40
27314;DHT22;14800;48.174;9.798;2024-01-10T00:58:33;-3.70;80.60
27314;DHT22;14800;48.174;9.798;2024-01-10T01:00:59;-3.70;80.70
27314;DHT22;14800;48.174;9.798;2024-01-10T01:03:24;-3.70;80.80
27314;DHT22;14800;48.174;9.798;2024-01-10T01:05:50;-3.70;81.60
27314;DHT22;14800;48.174;9.798;2024-01-10T01:08:15;-3.60;80.70
27314;DHT22;14800;48.174;9.798;2024-01-10T01:10:41;-3.60;80.70
27314;DHT22;14800;48.174;9.798;2024-01-10T01:13:06;-3.60;80.60
27314;DHT22;14800;48.174;9.798;2024-01-10T01:15:32;-3.60;80.70
27314;DHT22;14800;48.174;9.798;2024-01-10T01:17:58;-3.60;80.70
27314;DHT22;14800;48.174;9.798;2024-01-10T01:20:23;-3.50;81.70
27314;DHT22;14800;48.174;9.798;2024-01-10T01:22:49;-3.50;80.90
27314;DHT22;14800;48.174;9.798;2024-01-10T01:25:14;-3.50;80.90
27314;DHT22;14800;48.174;9.798;2024-01-10T01:27:40;-3.40;81.10
27314;DHT22;14800;48.174;9.798;2024-01-10T01:30:06;-3.40;81.10
27314;DHT22;14800;48.174;9.798;2024-01-10T01:32:32;-3.40;81.00
27314;DHT22;14800;48.174;9.798;2024-01-10T01:34:57;-3.30;81.10
27314;DHT22;14800;48.174;9.798;2024-01-10T01:37:23;-3.30;81.20
27314;DHT22;14800;48.174;9.798;2024-01-10T01:39:49;-3.30;81.10
27314;DHT22;14800;48.174;9.798;2024-01-10T01:42:15;-3.20;81.20
27314;DHT22;14800;48.174;9.798;2024-01-10T01:44:41;-3.20;81.10
27314;DHT22;14800;48.174;9.798;2024-01-10T01:47:06;-3.20;81.00
27314;DHT22;14800;48.174;9.798;2024-01-10T01:49:32;-3.20;81.00
27314;DHT22;14800;48.174;9.798;2024-01-10T01:51:58;-3.20;81.00
27314;DHT22;14800;48.174;9.798;2024-01-10T01:54:25;-3.10;81.10
27314;DHT22;14800;48.174;9.798;2024-01-10T01:56:51;-3.10;81.10
27314;DHT22;14800;48.174;9.798;2024-01-10T01:59:17;-3.10;81.10
27314;DHT22;14800;48.174;9.798;2024-01-10T02:01:43;-3.10;81.10
27314;DHT22;14800;48.174;9.798;2024-01-10T02:04:08;-3.10;80.90
27314;DHT22;14800;48.174;9.798;2024-01-10T02:06:34;-3.10;80.90
27314;DHT22;14800;48.174;9.798;2024-01-10T02:09:00;-3.00;80.90
27314;DHT22;14800;48.174;9.798;2024-01-10T02:11:26;-3.00;81.00
27314;DHT22;14800;48.174;9.798;2024-01-10T02:13:52;-3.00;81.10
27314;DHT22;14800;48.174;9.798;2024-01-10T02:16:20;-3.00;81.10
27314;DHT22;14800;48.174;9.798;2024-01-10T02:18:46;-3.00;81.20
27314;DHT22;14800;48.174;9.798;2024-01-10T02:21:11;-3.00;81.20
27314;DHT22;14800;48.174;9.798;2024-01-10T02:23:37;-3.00;81.10
27314;DHT22;14800;48.174;9.798;2024-01-10T02:26:03;-2.90;81.20
27314;DHT22;14800;48.174;9.798;2024-01-10T02:28:28;-2.90;81.10
27314;DHT22;14800;48.174;9.798;2024-01-10T02:30:54;-2.90;81.00
27314;DHT22;14800;48.174;9.798;2024-01-10T02:33:20;-2.90;80.90
27314;DHT22;14800;48.174;9.798;2024-01-10T02:35:46;-2.80;81.00
27314;DHT22;14800;48.174;9.798;2024-01-10T02:38:12;-2.80;81.10
27314;DHT22;14800;48.174;9.798;2024-01-10T02:40:37;-2.80;81.00
27314;DHT22;14800;48.174;9.798;2024-01-10T02:43:03;-2.80;81.10
27314;DHT22;14800;48.174;9.798;2024-01-10T02:45:28;-2.70;81.10
27314;DHT22;14800;48.174;9.798;2024-01-10T02:47:54;-2.70;80.90
27314;DHT22;14800;48.174;9.798;2024-01-10T02:50:20;-2.70;80.60
27314;DHT22;14800;48.174;9.798;2024-01-10T02:52:45;-2.60;80.50
27314;DHT22;14800;48.174;9.798;2024-01-10T02:55:11;-2.70;80.30
27314;DHT22;14800;48.174;9.798;2024-01-10T02:57:36;-2.70;80.40
27314;DHT22;14800;48.174;9.798;2024-01-10T03:00:02;-2.70;80.40
27314;DHT22;14800;48.174;9.798;2024-01-10T03:02:30;-2.70;80.30
27314;DHT22;14800;48.174;9.798;2024-01-10T03:04:55;-2.70;80.00
27314;DHT22;14800;48.174;9.798;2024-01-10T03:07:21;-2.70;80.00
27314;DHT22;14800;48.174;9.798;2024-01-10T03:09:46;-2.80;80.10
27314;DHT22;14800;48.174;9.798;2024-01-10T03:12:12;-2.80;80.20
27314;DHT22;14800;48.174;9.798;2024-01-10T03:14:37;-2.80;80.40
27314;DHT22;14800;48.174;9.798;2024-01-10T03:17:03;-2.80;80.40
27314;DHT22;14800;48.174;9.798;2024-01-10T03:19:29;-2.80;80.60
27314;DHT22;14800;48.174;9.798;2024-01-10T03:21:54;-2.80;80.60
27314;DHT22;14800;48.174;9.798;2024-01-10T03:24:20;-2.80;80.70
27314;DHT22;14800;48.174;9.798;2024-01-10T03:26:45;-2.70;80.80
27314;DHT22;14800;48.174;9.798;2024-01-10T03:29:11;-2.70;80.90
27314;DHT22;14800;48.174;9.798;2024-01-10T03:31:36;-2.70;80.80
27314;DHT22;14800;48.174;9.798;2024-01-10T03:34:03;-2.70;80.80
27314;DHT22;14800;48.174;9.798;2024-01-10T03:36:29;-2.70;80.80
27314;DHT22;14800;48.174;9.798;2024-01-10T03:38:54;-2.70;81.80
27314;DHT22;14800;48.174;9.798;2024-01-10T03:41:20;-2.60;81.10
27314;DHT22;14800;48.174;9.798;2024-01-10T03:43:46;-2.60;81.10
27314;DHT22;14800;48.174;9.798;2024-01-10T03:46:13;-2.60;81.00
27314;DHT22;14800;48.174;9.798;2024-01-10T03:48:38;-2.50;81.10
27314;DHT22;14800;48.174;9.798;2024-01-10T03:51:13;-2.50;81.00
27314;DHT22;14800;48.174;9.798;2024-01-10T03:53:40;-2.50;80.80
27314;DHT22;14800;48.174;9.798;2024-01-10T03:56:06;-2.50;80.70
27314;DHT22;14800;48.174;9.798;2024-01-10T03:58:31;-2.40;80.80
27314;DHT22;14800;48.174;9.798;2024-01-10T04:00:57;-2.50;80.70
27314;DHT22;14800;48.174;9.798;2024-01-10T04:03:23;-2.40;80.70
27314;DHT22;14800;48.174;9.798;2024-01-10T04:05:48;-2.40;80.70
27314;DHT22;14800;48.174;9.798;2024-01-10T04:08:14;-2.40;80.70
27314;DHT22;14800;48.174;9.798;2024-01-10T04:10:39;-2.40;80.90
27314;DHT22;14800;48.174;9.798;2024-01-10T04:13:05;-2.40;81.00
27314;DHT22;14800;48.174;9.798;2024-01-10T04:15:30;-2.30;81.10
27314;DHT22;14800;48.174;9.798;2024-01-10T04:17:56;-2.40;81.20
27314;DHT22;14800;48.174;9.798;2024-01-10T04:20:21;-2.30;81.30
27314;DHT22;14800;48.174;9.798;2024-01-10T04:22:47;-2.30;81.20
27314;DHT22;14800;48.174;9.798;2024-01-10T04:25:13;-2.30;81.10
27314;DHT22;14800;48.174;9.798;2024-01-10T04:27:38;-2.30;81.10
27314;DHT22;14800;48.174;9.798;2024-01-10T04:30:05;-2.20;81.10
27314;DHT22;14800;48.174;9.798;2024-01-10T04:32:30;-2.20;81.10
27314;DHT22;14800;48.174;9.798;2024-01-10T04:34:56;-2.20;81.10
27314;DHT22;14800;48.174;9.798;2024-01-10T04:37:22;-2.20;80.90
27314;DHT22;14800;48.174;9.798;2024-01-10T04:39:47;-2.20;80.70
27314;DHT22;14800;48.174;9.798;2024-01-10T04:42:13;-2.20;80.90
27314;DHT22;14800;48.174;9.798;2024-01-10T04:44:39;-2.20;81.00
27314;DHT22;14800;48.174;9.798;2024-01-10T04:47:05;-2.20;81.10
27314;DHT22;14800;48.174;9.798;2024-01-10T04:49:31;-2.20;81.10
27314;DHT22;14800;48.174;9.798;2024-01-10T04:51:56;-2.10;81.20
27314;DHT22;14800;48.174;9.798;2024-01-10T04:54:22;-2.10;81.10
27314;DHT22;14800;48.174;9.798;2024-01-10T04:56:48;-2.10;81.10
27314;DHT22;14800;48.174;9.798;2024-01-10T04:59:14;-2.10;80.90
27314;DHT22;14800;48.174;9.798;2024-01-10T05:01:39;-2.00;81.00
27314;DHT22;14800;48.174;9.798;2024-01-10T05:04:05;-2.00;81.00
27314;DHT22;14800;48.174;9.798;2024-01-10T05:06:31;-2.00;81.00
27314;DHT22;14800;48.174;9.798;2024-01-10T05:08:56;-2.00;81.10
27314;DHT22;14800;48.174;9.798;2024-01-10T05:11:24;-2.00;81.10
27314;DHT22;14800;48.174;9.798;2024-01-10T05:13:51;-2.00;81.00
27314;DHT22;14800;48.174;9.798;2024-01-10T05:16:17;-2.00;81.00
27314;DHT22;14800;48.174;9.798;2024-01-10T05:18:43;-1.90;80.80
27314;DHT22;14800;48.174;9.798;2024-01-10T05:21:08;-1.90;80.70
27314;DHT22;14800;48.174;9.798;2024-01-10T05:23:34;-1.90;80.80
27314;DHT22;14800;48.174;9.798;2024-01-10T05:26:00;-1.90;80.90
27314;DHT22;14800;48.174;9.798;2024-01-10T05:28:25;-1.90;81.10
27314;DHT22;14800;48.174;9.798;2024-01-10T05:30:51;-1.90;81.00
27314;DHT22;14800;48.174;9.798;2024-01-10T05:33:16;-1.90;80.90
27314;DHT22;14800;48.174;9.798;2024-01-10T05:35:42;-1.90;80.90
27314;DHT22;14800;48.174;9.798;2024-01-10T05:38:07;-1.80;80.90
27314;DHT22;14800;48.174;9.798;2024-01-10T05:40:33;-1.80;80.70
27314;DHT22;14800;48.174;9.798;2024-01-10T05:42:59;-1.80;80.70
27314;DHT22;14800;48.174;9.798;2024-01-10T05:45:27;-1.90;80.20
27314;DHT22;14800;48.174;9.798;2024-01-10T05:47:53;-1.90;80.40
27314;DHT22;14800;48.174;9.798;2024-01-10T05:50:19;-1.90;80.40
27314;DHT22;14800;48.174;9.798;2024-01-10T05:52:45;-2.00;80.20
27314;DHT22;14800;48.174;9.798;2024-01-10T05:55:11;-2.00;80.20
27314;DHT22;14800;48.174;9.798;2024-01-10T05:57:36;-2.00;80.20
27314;DHT22;14800;48.174;9.798;2024-01-10T06:00:03;-2.10;80.30
27314;DHT22;14800;48.174;9.798;2024-01-10T06:02:30;-2.10;80.50
27314;DHT22;14800;48.174;9.798;2024-01-10T06:04:55;-2.10;80.50
27314;DHT22;14800;48.174;9.798;2024-01-10T06:07:21;-2.20;80.60
27314;DHT22;14800;48.174;9.798;2024-01-10T06:09:47;-2.20;80.70
27314;DHT22;14800;48.174;9.798;2024-01-10T06:12:13;-2.20;80.90
27314;DHT22;14800;48.174;9.798;2024-01-10T06:14:38;-2.20;81.10
27314;DHT22;14800;48.174;9.798;2024-01-10T06:17:04;-2.20;81.20
27314;DHT22;14800;48.174;9.798;2024-01-10T06:19:30;-2.20;81.20
27314;DHT22;14800;48.174;9.798;2024-01-10T06:21:59;-2.20;81.10
27314;DHT22;14800;48.174;9.798;2024-01-10T06:24:26;-2.20;81.10
27314;DHT22;14800;48.174;9.798;2024-01-10T06:26:51;-2.20;80.90
27314;DHT22;14800;48.174;9.798;2024-01-10T06:29:18;-2.20;80.90
27314;DHT22;14800;48.174;9.798;2024-01-10T06:31:44;-2.20;81.10
27314;DHT22;14800;48.174;9.798;2024-01-10T06:34:09;-2.20;82.00
27314;DHT22;14800;48.174;9.798;2024-01-10T06:36:35;-2.20;81.30
27314;DHT22;14800;48.174;9.798;2024-01-10T06:39:01;-2.30;81.10
27314;DHT22;14800;48.174;9.798;2024-01-10T06:41:27;-2.30;81.90
27314;DHT22;14800;48.174;9.798;2024-01-10T06:43:53;-2.30;81.20
27314;DHT22;14800;48.174;9.798;2024-01-10T06:46:19;-2.30;81.40
27314;DHT22;14800;48.174;9.798;2024-01-10T06:48:45;-2.30;81.50
27314;DHT22;14800;48.174;9.798;2024-01-10T06:51:13;-2.40;81.40
27314;DHT22;14800;48.174;9.798;2024-01-10T06:53:39;-2.40;81.40
27314;DHT22;14800;48.174;9.798;2024-01-10T06:56:06;-2.40;81.40
27314;DHT22;14800;48.174;9.798;2024-01-10T06:58:31;-2.40;81.60
27314;DHT22;14800;48.174;9.798;2024-01-10T07:00:58;-2.40;81.80
27314;DHT22;14800;48.174;9.798;2024-01-10T07:03:27;-2.40;82.00
27314;DHT22;14800;48.174;9.798;2024-01-10T07:05:52;-2.30;82.20
27314;DHT22;14800;48.174;9.798;2024-01-10T07:08:18;-2.30;82.20
27314;DHT22;14800;48.174;9.798;2024-01-10T07:10:44;-2.30;82.10
27314;DHT22;14800;48.174;9.798;2024-01-10T07:13:10;-2.30;81.80
27314;DHT22;14800;48.174;9.798;2024-01-10T07:15:36;-2.30;81.80
27314;DHT22;14800;48.174;9.798;2024-01-10T07:18:02;-2.30;81.80
27314;DHT22;14800;48.174;9.798;2024-01-10T07:20:28;-2.30;82.00
27314;DHT22;14800;48.174;9.798;2024-01-10T07:22:53;-2.30;82.10
27314;DHT22;14800;48.174;9.798;2024-01-10T07:25:20;-2.20;82.10
27314;DHT22;14800;48.174;9.798;2024-01-10T07:27:47;-2.20;82.30
27314;DHT22;14800;48.174;9.798;2024-01-10T07:30:13;-2.20;82.30
27314;DHT22;14800;48.174;9.798;2024-01-10T07:32:47;-2.10;82.20
27314;DHT22;14800;48.174;9.798;2024-01-10T07:35:13;-2.10;82.00
27314;DHT22;14800;48.174;9.798;2024-01-10T07:37:41;-2.10;82.00
27314;DHT22;14800;48.174;9.798;2024-01-10T07:40:08;-2.10;81.90
27314;DHT22;14800;48.174;9.798;2024-01-10T07:42:34;-2.00;82.00
27314;DHT22;14800;48.174;9.798;2024-01-10T07:45:01;-2.00;81.90
27314;DHT22;14800;48.174;9.798;2024-01-10T07:47:34;-2.00;81.70
27314;DHT22;14800;48.174;9.798;2024-01-10T07:50:06;-2.00;81.80
27314;DHT22;14800;48.174;9.798;2024-01-10T07:52:32;-2.00;81.60
27314;DHT22;14800;48.174;9.798;2024-01-10T07:54:58;-2.00;81.60
27314;DHT22;14800;48.174;9.798;2024-01-10T07:57:24;-2.00;81.60
27314;DHT22;14800;48.174;9.798;2024-01-10T07:59:49;-1.90;81.60
27314;DHT22;14800;48.174;9.798;2024-01-10T08:02:15;-1.90;81.60
27314;DHT22;14800;48.174;9.798;2024-01-10T08:04:40;-1.90;82.00
27314;DHT22;14800;48.174;9.798;2024-01-10T08:07:06;-1.90;82.00
27314;DHT22;14800;48.174;9.798;2024-01-10T08:09:31;-1.90;82.00
27314;DHT22;14800;48.174;9.798;2024-01-10T08:11:57;-1.90;82.00
27314;DHT22;14800;48.174;9.798;2024-01-10T08:14:23;-1.80;82.30
27314;DHT22;14800;48.174;9.798;2024-01-10T08:16:49;-1.80;82.40
27314;DHT22;14800;48.174;9.798;2024-01-10T08:19:16;-1.80;82.30
27314;DHT22;14800;48.174;9.798;2024-01-10T08:21:41;-1.70;82.20
27314;DHT22;14800;48.174;9.798;2024-01-10T08:24:07;-1.70;82.30
27314;DHT22;14800;48.174;9.798;2024-01-10T08:26:33;-1.70;82.50
27314;DHT22;14800;48.174;9.798;2024-01-10T08:28:58;-1.70;82.30
27314;DHT22;14800;48.174;9.798;2024-01-10T08:31:24;-1.60;82.30
27314;DHT22;14800;48.174;9.798;2024-01-10T08:33:49;-1.60;82.10
27314;DHT22;14800;48.174;9.798;2024-01-10T08:36:15;-1.60;82.10
27314;DHT22;14800;48.174;9.798;2024-01-10T08:38:41;-1.60;82.30
27314;DHT22;14800;48.174;9.798;2024-01-10T08:41:10;-1.60;82.20
27314;DHT22;14800;48.174;9.798;2024-01-10T08:43:39;-1.50;82.30
27314;DHT22;14800;48.174;9.798;2024-01-10T08:46:08;-1.50;82.30
27314;DHT22;14800;48.174;9.798;2024-01-10T08:48:34;-1.40;82.30
27314;DHT22;14800;48.174;9.798;2024-01-10T08:51:02;-1.40;82.00
27314;DHT22;14800;48.174;9.798;2024-01-10T08:53:28;-1.40;81.80
27314;DHT22;14800;48.174;9.798;2024-01-10T08:55:53;-1.40;81.90
27314;DHT22;14800;48.174;9.798;2024-01-10T08:58:19;-1.40;82.20
27314;DHT22;14800;48.174;9.798;2024-01-10T09:00:44;-1.40;82.20
27314;DHT22;14800;48.174;9.798;2024-01-10T09:03:10;-1.40;82.20
27314;DHT22;14800;48.174;9.798;2024-01-10T09:05:36;-1.30;82.40
27314;DHT22;14800;48.174;9.798;2024-01-10T09:08:01;-1.30;82.50
27314;DHT22;14800;48.174;9.798;2024-01-10T09:10:28;-1.30;82.50
27314;DHT22;14800;48.174;9.798;2024-01-10T09:12:54;-1.30;82.10
27314;DHT22;14800;48.174;9.798;2024-01-10T09:15:19;-1.30;81.80
27314;DHT22;14800;48.174;9.798;2024-01-10T09:17:45;-1.30;81.60
27314;DHT22;14800;48.174;9.798;2024-01-10T09:20:12;-1.30;81.90
27314;DHT22;14800;48.174;9.798;2024-01-10T09:22:38;-1.30;82.20
27314;DHT22;14800;48.174;9.798;2024-01-10T09:25:04;-1.30;82.30
27314;DHT22;14800;48.174;9.798;2024-01-10T09:27:32;-1.30;82.30
27314;DHT22;14800;48.174;9.798;2024-01-10T09:29:59;-1.20;82.60
27314;DHT22;14800;48.174;9.798;2024-01-10T09:32:25;-1.20;82.60
27314;DHT22;14800;48.174;9.798;2024-01-10T09:34:50;-1.20;82.50
27314;DHT22;14800;48.174;9.798;2024-01-10T09:37:16;-1.10;82.60
27314;DHT22;14800;48.174;9.798;2024-01-10T09:39:42;-1.10;82.50
27314;DHT22;14800;48.174;9.798;2024-01-10T09:42:08;-1.10;82.50
27314;DHT22;14800;48.174;9.798;2024-01-10T09:44:33;-1.10;82.70
27314;DHT22;14800;48.174;9.798;2024-01-10T09:47:00;-1.00;82.30
27314;DHT22;14800;48.174;9.798;2024-01-10T09:49:27;-1.00;82.20
27314;DHT22;14800;48.174;9.798;2024-01-10T09:52:04;-1.00;82.40
27314;DHT22;14800;48.174;9.798;2024-01-10T09:54:34;-0.90;82.30
27314;DHT22;14800;48.174;9.798;2024-01-10T09:57:01;-0.90;82.10
27314;DHT22;14800;48.174;9.798;2024-01-10T09:59:27;-0.90;81.80
27314;DHT22;14800;48.174;9.798;2024-01-10T10:01:53;-0.90;81.60
27314;DHT22;14800;48.174;9.798;2024-01-10T10:04:20;-0.90;81.70
27314;DHT22;14800;48.174;9.798;2024-01-10T10:06:46;-0.90;82.00
27314;DHT22;14800;48.174;9.798;2024-01-10T10:09:12;-0.90;81.90
27314;DHT22;14800;48.174;9.798;2024-01-10T10:11:38;-0.90;82.10
27314;DHT22;14800;48.174;9.798;2024-01-10T10:14:17;-0.90;82.40
27314;DHT22;14800;48.174;9.798;2024-01-10T10:16:43;-0.80;82.40
27314;DHT22;14800;48.174;9.798;2024-01-10T10:19:09;-0.80;82.50
27314;DHT22;14800;48.174;9.798;2024-01-10T10:21:37;-0.80;82.60
27314;DHT22;14800;48.174;9.798;2024-01-10T10:24:03;-0.70;82.70
27314;DHT22;14800;48.174;9.798;2024-01-10T10:26:32;-0.70;82.60
27314;DHT22;14800;48.174;9.798;2024-01-10T10:28:58;-0.60;82.40
27314;DHT22;14800;48.174;9.798;2024-01-10T10:31:25;-0.60;82.00
27314;DHT22;14800;48.174;9.798;2024-01-10T10:33:51;-0.60;82.10
27314;DHT22;14800;48.174;9.798;2024-01-10T10:36:17;-0.60;82.30
27314;DHT22;14800;48.174;9.798;2024-01-10T10:38:43;-0.50;82.30
27314;DHT22;14800;48.174;9.798;2024-01-10T10:41:09;-0.50;82.30
27314;DHT22;14800;48.174;9.798;2024-01-10T10:43:36;-0.40;82.40
27314;DHT22;14800;48.174;9.798;2024-01-10T10:46:04;-0.40;82.40
27314;DHT22;14800;48.174;9.798;2024-01-10T10:48:34;-0.40;82.50
27314;DHT22;14800;48.174;9.798;2024-01-10T10:51:11;-0.30;82.50
27314;DHT22;14800;48.174;9.798;2024-01-10T10:53:40;-0.30;83.20
27314;DHT22;14800;48.174;9.798;2024-01-10T10:56:09;-0.20;82.30
27314;DHT22;14800;48.174;9.798;2024-01-10T10:58:39;-0.20;82.10
27314;DHT22;14800;48.174;9.798;2024-01-10T11:01:06;-0.20;82.20
27314;DHT22;14800;48.174;9.798;2024-01-10T11:03:36;-0.20;82.10
27314;DHT22;14800;48.174;9.798;2024-01-10T11:06:13;-0.10;82.10
27314;DHT22;14800;48.174;9.798;2024-01-10T11:08:42;-0.10;82.10
27314;DHT22;14800;48.174;9.798;2024-01-10T11:20:13;0.10;81.80
27314;DHT22;14800;48.174;9.798;2024-01-10T11:25:54;0.20;82.30
27314;DHT22;14800;48.174;9.798;2024-01-10T11:28:20;0.20;82.40
27314;DHT22;14800;48.174;9.798;2024-01-10T11:30:53;0.30;82.20
27314;DHT22;14800;48.174;9.798;2024-01-10T11:33:21;0.40;82.10
27314;DHT22;14800;48.174;9.798;2024-01-10T11:36:19;0.40;82.10
27314;DHT22;14800;48.174;9.798;2024-01-10T11:39:04;0.50;81.90
27314;DHT22;14800;48.174;9.798;2024-01-10T11:41:36;0.50;81.80
27314;DHT22;14800;48.174;9.798;2024-01-10T11:46:49;0.60;81.80
27314;DHT22;14800;48.174;9.798;2024-01-10T11:49:18;0.60;81.40
27314;DHT22;14800;48.174;9.798;2024-01-10T11:51:49;0.60;81.30
27314;DHT22;14800;48.174;9.798;2024-01-10T11:54:37;0.60;81.30
27314;DHT22;14800;48.174;9.798;2024-01-10T11:57:07;0.60;81.80
27314;DHT22;14800;48.174;9.798;2024-01-10T11:59:34;0.60;81.80
27314;DHT22;14800;48.174;9.798;2024-01-10T12:02:00;0.60;81.30
27314;DHT22;14800;48.174;9.798;2024-01-10T12:04:26;0.60;81.30
27314;DHT22;14800;48.174;9.798;2024-01-10T12:06:55;0.60;81.60
27314;DHT22;14800;48.174;9.798;2024-01-10T12:09:21;0.60;81.80
27314;DHT22;14800;48.174;9.798;2024-01-10T12:11:50;0.60;82.00
27314;DHT22;14800;48.174;9.798;2024-01-10T12:14:15;0.70;82.10
27314;DHT22;14800;48.174;9.798;2024-01-10T12:16:41;0.70;81.80
27314;DHT22;14800;48.174;9.798;2024-01-10T12:19:07;0.70;81.70
27314;DHT22;14800;48.174;9.798;2024-01-10T12:21:32;0.70;81.80
27314;DHT22;14800;48.174;9.798;2024-01-10T12:23:58;0.70;82.00
27314;DHT22;14800;48.174;9.798;2024-01-10T12:26:23;0.70;82.00
27314;DHT22;14800;48.174;9.798;2024-01-10T12:28:57;0.70;82.00
27314;DHT22;14800;48.174;9.798;2024-01-10T12:31:24;0.80;81.80
27314;DHT22;14800;48.174;9.798;2024-01-10T12:33:51;0.80;81.70
27314;DHT22;14800;48.174;9.798;2024-01-10T12:36:17;0.70;81.60
27314;DHT22;14800;48.174;9.798;2024-01-10T12:38:43;0.70;81.70
27314;DHT22;14800;48.174;9.798;2024-01-10T12:41:14;0.70;81.80
27314;DHT22;14800;48.174;9.798;2024-01-10T12:43:41;0.70;82.00
27314;DHT22;14800;48.174;9.798;2024-01-10T12:46:10;0.70;82.10
27314;DHT22;14800;48.174;9.798;2024-01-10T12:48:36;0.70;82.40
27314;DHT22;14800;48.174;9.798;2024-01-10T12:51:05;0.80;82.40
27314;DHT22;14800;48.174;9.798;2024-01-10T12:53:34;0.80;82.40
27314;DHT22;14800;48.174;9.798;2024-01-10T12:55:59;0.80;82.40
27314;DHT22;14800;48.174;9.798;2024-01-10T12:58:26;0.80;82.30
27314;DHT22;14800;48.174;9.798;2024-01-10T13:00:51;0.90;82.50
27314;DHT22;14800;48.174;9.798;2024-01-10T13:03:17;0.90;82.40
27314;DHT22;14800;48.174;9.798;2024-01-10T13:05:43;0.90;82.50
27314;DHT22;14800;48.174;9.798;2024-01-10T13:08:09;0.90;82.40
27314;DHT22;14800;48.174;9.798;2024-01-10T13:10:37;1.00;82.40
27314;DHT22;14800;48.174;9.798;2024-01-10T13:13:03;1.00;82.40
27314;DHT22;14800;48.174;9.798;2024-01-10T13:15:28;1.00;82.50
27314;DHT22;14800;48.174;9.798;2024-01-10T13:17:55;1.00;82.60
27314;DHT22;14800;48.174;9.798;2024-01-10T13:20:21;1.10;82.70
27314;DHT22;14800;48.174;9.798;2024-01-10T13:22:46;1.10;82.60
27314;DHT22;14800;48.174;9.798;2024-01-10T13:25:12;1.10;82.10
27314;DHT22;14800;48.174;9.798;2024-01-10T13:27:38;1.10;82.30
27314;DHT22;14800;48.174;9.798;2024-01-10T13:30:04;1.10;82.50
27314;DHT22;14800;48.174;9.798;2024-01-10T13:32:31;1.10;82.50
27314;DHT22;14800;48.174;9.798;2024-01-10T13:34:56;1.10;82.50
27314;DHT22;14800;48.174;9.798;2024-01-10T13:37:22;1.10;82.60
27314;DHT22;14800;48.174;9.798;2024-01-10T13:39:48;1.10;82.50
27314;DHT22;14800;48.174;9.798;2024-01-10T13:42:14;1.10;82.40
27314;DHT22;14800;48.174;9.798;2024-01-10T13:44:40;1.20;82.30
27314;DHT22;14800;48.174;9.798;2024-01-10T13:47:06;1.10;82.30
27314;DHT22;14800;48.174;9.798;2024-01-10T13:49:31;1.10;82.30
27314;DHT22;14800;48.174;9.798;2024-01-10T13:51:57;1.10;82.30
27314;DHT22;14800;48.174;9.798;2024-01-10T13:54:23;1.10;82.30
27314;DHT22;14800;48.174;9.798;2024-01-10T13:56:48;1.10;82.30
27314;DHT22;14800;48.174;9.798;2024-01-10T13:59:14;1.10;82.40
27314;DHT22;14800;48.174;9.798;2024-01-10T14:01:39;1.10;82.40
27314;DHT22;14800;48.174;9.798;2024-01-10T14:04:05;1.10;82.40
27314;DHT22;14800;48.174;9.798;2024-01-10T14:06:31;1.10;82.40
27314;DHT22;14800;48.174;9.798;2024-01-10T14:08:57;1.10;82.30
27314;DHT22;14800;48.174;9.798;2024-01-10T14:11:23;1.20;82.30
27314;DHT22;14800;48.174;9.798;2024-01-10T14:13:49;1.20;82.30
27314;DHT22;14800;48.174;9.798;2024-01-10T14:16:15;1.20;82.30
27314;DHT22;14800;48.174;9.798;2024-01-10T14:18:41;1.20;82.30
27314;DHT22;14800;48.174;9.798;2024-01-10T14:21:06;1.20;82.20
27314;DHT22;14800;48.174;9.798;2024-01-10T14:23:33;1.20;82.30
27314;DHT22;14800;48.174;9.798;2024-01-10T14:26:00;1.20;82.40
27314;DHT22;14800;48.174;9.798;2024-01-10T14:28:26;1.20;82.40
27314;DHT22;14800;48.174;9.798;2024-01-10T14:30:51;1.20;82.50
27314;DHT22;14800;48.174;9.798;2024-01-10T14:33:17;1.30;82.50
27314;DHT22;14800;48.174;9.798;2024-01-10T14:35:42;1.30;82.40
27314;DHT22;14800;48.174;9.798;2024-01-10T14:38:08;1.30;82.30
27314;DHT22;14800;48.174;9.798;2024-01-10T14:40:33;1.30;82.20
27314;DHT22;14800;48.174;9.798;2024-01-10T14:42:59;1.30;82.30
27314;DHT22;14800;48.174;9.798;2024-01-10T14:45:25;1.30;82.20
27314;DHT22;14800;48.174;9.798;2024-01-10T14:47:50;1.30;82.10
27314;DHT22;14800;48.174;9.798;2024-01-10T14:50:16;1.30;82.10
27314;DHT22;14800;48.174;9.798;2024-01-10T14:52:42;1.20;82.10
27314;DHT22;14800;48.174;9.798;2024-01-10T14:55:08;1.20;82.10
27314;DHT22;14800;48.174;9.798;2024-01-10T14:57:33;1.20;82.20
27314;DHT22;14800;48.174;9.798;2024-01-10T14:59:59;1.20;82.20
27314;DHT22;14800;48.174;9.798;2024-01-10T15:02:25;1.20;82.30
27314;DHT22;14800;48.174;9.798;2024-01-10T15:04:50;1.20;82.20
27314;DHT22;14800;48.174;9.798;2024-01-10T15:07:16;1.20;82.20
27314;DHT22;14800;48.174;9.798;2024-01-10T15:09:43;1.20;82.30
27314;DHT22;14800;48.174;9.798;2024-01-10T15:12:08;1.20;82.30
27314;DHT22;14800;48.174;9.798;2024-01-10T15:14:35;1.10;82.30
27314;DHT22;14800;48.174;9.798;2024-01-10T15:17:02;1.20;82.30
27314;DHT22;14800;48.174;9.798;2024-01-10T15:19:30;1.10;82.30
27314;DHT22;14800;48.174;9.798;2024-01-10T15:21:57;1.20;82.30
27314;DHT22;14800;48.174;9.798;2024-01-10T15:24:23;1.10;82.20
27314;DHT22;14800;48.174;9.798;2024-01-10T15:26:50;1.20;82.90
27314;DHT22;14800;48.174;9.798;2024-01-10T15:29:16;1.10;83.10
27314;DHT22;14800;48.174;9.798;2024-01-10T15:31:41;1.10;82.30
27314;DHT22;14800;48.174;9.798;2024-01-10T15:34:07;1.10;82.30
27314;DHT22;14800;48.174;9.798;2024-01-10T15:36:33;1.10;82.30
27314;DHT22;14800;48.174;9.798;2024-01-10T15:38:59;1.10;82.30
27314;DHT22;14800;48.174;9.798;2024-01-10T15:41:24;1.10;82.40
27314;DHT22;14800;48.174;9.798;2024-01-10T15:43:50;1.10;82.30